Time;durP1;ratioP1;P1;durP2;ratioP2;P2;SDS_P1;SDS_P2;PMS_P1;PMS_P2;Temp;Humidity;BMP_temperature;BMP_pressure;BME280_temperature;BME280_humidity;BME280_pressure;Samples;Min_cycle;Max_cycle;Signal;HPM_P1;HPM_P2
2023/04/02 00:01:31;;;;;;;6.53;1.60;;;;;;;1.72;100.00;101614.97;5048857;28;20182;-65
2023/04/02 00:03:58;;;;;;;5.37;1.40;;;;;;;1.64;100.00;101617.75;5045184;28;20221;-66
2023/04/02 00:06:31;;;;;;;6.37;2.10;;;;;;;1.62;100.00;101620.19;5047365;28;20649;-67
2023/04/02 00:09:18;;;;;;;5.73;1.50;;;;;;;1.67;100.00;101628.94;5049761;28;20251;-66
2023/04/02 00:11:53;;;;;;;4.37;1.57;;;;;;;1.65;100.00;101627.94;5043884;28;20810;-66
2023/04/02 00:14:33;;;;;;;5.17;1.40;;;;;;;1.62;100.00;101640.38;5048021;28;20218;-65
2023/04/02 00:17:01;;;;;;;4.93;1.73;;;;;;;1.64;100.00;101637.94;5043297;28;20193;-66
2023/04/02 00:19:35;;;;;;;5.23;1.50;;;;;;;1.61;100.00;101645.31;5049412;28;20209;-67
2023/04/02 00:22:05;;;;;;;8.87;1.70;;;;;;;1.58;100.00;101646.00;5045517;28;20190;-65
2023/04/02 00:24:32;;;;;;;4.70;1.70;;;;;;;1.62;100.00;101653.00;5046652;28;20214;-66
2023/04/02 00:26:57;;;;;;;4.60;1.60;;;;;;;1.63;100.00;101657.25;5045783;28;20670;-67
2023/04/02 00:29:23;;;;;;;5.43;1.70;;;;;;;1.61;100.00;101655.41;5045156;28;20272;-67
2023/04/02 00:31:53;;;;;;;9.73;2.17;;;;;;;1.65;100.00;101659.91;5030377;28;20240;-66
2023/04/02 00:34:21;;;;;;;5.37;1.67;;;;;;;1.67;100.00;101655.81;5031275;28;20210;-67
2023/04/02 00:36:49;;;;;;;7.17;1.50;;;;;;;1.64;100.00;101671.63;5045439;28;20208;-66
2023/04/02 00:39:22;;;;;;;4.37;1.50;;;;;;;1.67;100.00;101674.38;5031278;28;20185;-66
2023/04/02 00:41:57;;;;;;;4.27;1.50;;;;;;;1.66;100.00;101674.25;5045846;28;20213;-66
2023/04/02 00:44:23;;;;;;;6.13;1.83;;;;;;;1.66;100.00;101680.16;5048421;28;20617;-67
2023/04/02 00:46:50;;;;;;;6.37;1.77;;;;;;;1.67;100.00;101683.56;5043365;28;20229;-66
2023/04/02 00:49:21;;;;;;;6.50;1.90;;;;;;;1.67;100.00;101681.94;5028980;28;21007;-66
2023/04/02 00:52:00;;;;;;;7.53;1.50;;;;;;;1.69;100.00;101679.53;5032962;28;20222;-67
2023/04/02 00:54:31;;;;;;;5.50;1.63;;;;;;;1.69;100.00;101692.13;5028504;28;20229;-66
2023/04/02 00:56:57;;;;;;;3.80;1.27;;;;;;;1.69;100.00;101690.47;5046204;28;20255;-67
2023/04/02 00:59:47;;;;;;;7.43;2.30;;;;;;;1.81;100.00;101692.94;5048403;28;20666;-67
2023/04/02 01:02:13;;;;;;;10.00;2.47;;;;;;;1.74;100.00;101699.22;5041736;28;20217;-68
2023/04/02 01:04:39;;;;;;;3.80;1.67;;;;;;;1.76;100.00;101704.38;5030773;28;20248;-67
2023/04/02 01:07:10;;;;;;;4.87;1.80;;;;;;;1.75;100.00;101700.13;5026344;28;20217;-67
2023/04/02 01:09:48;;;;;;;5.27;1.50;;;;;;;1.75;100.00;101705.16;5031087;28;20196;-67
2023/04/02 01:12:37;;;;;;;4.57;1.53;;;;;;;1.75;100.00;101705.16;5024757;28;20682;-67
2023/04/02 01:15:13;;;;;;;5.03;1.40;;;;;;;1.73;100.00;101710.09;5027599;28;20301;-66
2023/04/02 01:17:47;;;;;;;6.33;1.57;;;;;;;1.74;100.00;101713.50;5031189;28;20194;-68
2023/04/02 01:20:30;;;;;;;5.60;1.23;;;;;;;1.71;100.00;101716.72;5026601;28;20279;-67
2023/04/02 01:23:13;;;;;;;3.83;1.53;;;;;;;1.73;100.00;101730.28;5044018;28;20217;-67
2023/04/02 01:25:50;;;;;;;4.57;1.63;;;;;;;1.76;100.00;101733.03;5047819;28;20819;-67
2023/04/02 01:28:34;;;;;;;7.97;1.97;;;;;;;1.70;100.00;101739.31;5044110;28;20224;-66
2023/04/02 01:31:01;;;;;;;7.80;1.50;;;;;;;1.70;100.00;101746.88;5025903;28;20214;-66
2023/04/02 01:33:31;;;;;;;5.50;1.73;;;;;;;1.66;100.00;101747.44;5027574;28;20194;-67
2023/04/02 01:36:17;;;;;;;5.03;1.40;;;;;;;1.65;100.00;101754.13;5030883;28;20232;-67
2023/04/02 01:38:53;;;;;;;7.33;1.20;;;;;;;1.64;100.00;101757.41;5046164;28;20213;-67
2023/04/02 01:41:33;;;;;;;5.67;1.53;;;;;;;1.58;100.00;101758.66;5026006;28;20186;-67
2023/04/02 01:44:13;;;;;;;3.13;1.40;;;;;;;1.58;100.00;101763.69;5030615;28;20767;-67
2023/04/02 01:46:40;;;;;;;6.50;1.43;;;;;;;1.56;100.00;101770.28;5044925;28;20193;-66
2023/04/02 01:49:21;;;;;;;6.23;1.83;;;;;;;1.52;100.00;101774.22;5045624;28;20643;-65
2023/04/02 01:51:53;;;;;;;4.77;1.63;;;;;;;1.52;100.00;101775.88;5029435;28;20210;-66
2023/04/02 01:54:20;;;;;;;3.87;1.30;;;;;;;1.57;100.00;101782.13;5025908;28;20252;-67
2023/04/02 01:56:46;;;;;;;6.43;1.77;;;;;;;1.56;100.00;101781.25;5048312;28;20339;-66
2023/04/02 01:59:19;;;;;;;5.90;1.90;;;;;;;1.51;100.00;101787.63;5023884;28;20264;-67
2023/04/02 02:01:55;;;;;;;3.43;1.30;;;;;;;1.50;100.00;101790.03;5035758;28;20188;-66
2023/04/02 02:04:21;;;;;;;5.97;1.83;;;;;;;1.49;100.00;101791.69;5043041;28;20695;-66
2023/04/02 02:06:47;;;;;;;6.73;1.73;;;;;;;1.47;100.00;101795.72;5042918;28;20186;-66
2023/04/02 02:09:21;;;;;;;4.10;1.33;;;;;;;1.45;100.00;101797.28;5023998;28;20211;-66
2023/04/02 02:11:49;;;;;;;5.13;1.40;;;;;;;1.40;100.00;101795.19;5030752;28;20214;-67
2023/04/02 02:14:18;;;;;;;4.53;1.40;;;;;;;1.44;100.00;101804.75;5023045;28;20209;-66
2023/04/02 02:16:46;;;;;;;7.13;1.50;;;;;;;1.45;100.00;101812.41;5039705;28;20684;-67
2023/04/02 02:19:18;;;;;;;7.20;1.60;;;;;;;1.41;100.00;101815.50;5024658;28;20324;-65
2023/04/02 02:21:49;;;;;;;5.27;1.40;;;;;;;1.40;100.00;101817.91;5045176;28;20221;-66
2023/04/02 02:24:23;;;;;;;3.50;1.20;;;;;;;1.42;100.00;101819.75;5041868;28;20586;-66
2023/04/02 02:27:12;;;;;;;6.20;1.67;;;;;;;1.37;100.00;101817.69;5028589;28;20651;-66
2023/04/02 02:29:41;;;;;;;5.23;1.47;;;;;;;1.40;100.00;101825.47;5025681;28;20210;-67
2023/04/02 02:32:09;;;;;;;4.37;1.50;;;;;;;1.35;100.00;101829.31;5041932;28;20217;-66
2023/04/02 02:34:42;;;;;;;9.57;2.40;;;;;;;1.36;100.00;101829.44;5026925;28;20221;-66
2023/04/02 02:37:21;;;;;;;5.53;1.90;;;;;;;1.44;100.00;101832.50;5027748;28;20186;-66
2023/04/02 02:39:51;;;;;;;3.60;1.40;;;;;;;1.40;100.00;101849.06;5026567;28;20186;-67
2023/04/02 02:42:32;;;;;;;7.27;1.80;;;;;;;1.32;100.00;101854.34;5042990;28;20192;-66
2023/04/02 02:45:01;;;;;;;7.67;2.40;;;;;;;1.33;100.00;101851.91;5023272;28;20252;-67
2023/04/02 02:47:30;;;;;;;3.97;1.30;;;;;;;1.29;100.00;101857.47;5026840;28;20190;-66
2023/04/02 02:50:16;;;;;;;5.83;1.30;;;;;;;1.32;100.00;101857.72;5031258;28;20568;-67
2023/04/02 02:52:46;;;;;;;6.97;1.70;;;;;;;1.39;100.00;101861.56;5042489;28;20197;-66
2023/04/02 02:55:20;;;;;;;6.83;1.30;;;;;;;1.36;100.00;101871.41;5024439;28;20213;-66
2023/04/02 02:58:05;;;;;;;7.20;1.33;;;;;;;1.38;100.00;101878.31;5033266;28;20686;-66
2023/04/02 03:00:39;;;;;;;5.53;1.30;;;;;;;1.39;100.00;101877.59;5033200;28;20229;-66
2023/04/02 03:03:09;;;;;;;5.43;1.40;;;;;;;1.44;100.00;101882.94;5029078;28;20181;-66
2023/04/02 03:05:36;;;;;;;8.73;1.73;;;;;;;1.45;100.00;101887.22;5032544;28;20694;-65
2023/04/02 03:08:21;;;;;;;5.37;1.43;;;;;;;1.44;100.00;101890.50;5028175;28;20193;-67
2023/04/02 03:10:56;;;;;;;5.73;1.50;;;;;;;1.49;100.00;101895.13;5030685;28;20205;-67
2023/04/02 03:13:34;;;;;;;6.13;1.37;;;;;;;1.47;100.00;101896.66;5033002;28;20217;-67
2023/04/02 03:16:15;;;;;;;5.87;1.30;;;;;;;1.50;100.00;101901.03;5030424;28;20190;-67
2023/04/02 03:18:44;;;;;;;5.73;1.50;;;;;;;1.51;100.00;101908.72;5028953;28;20201;-67
2023/04/02 03:21:27;;;;;;;4.33;1.33;;;;;;;1.56;100.00;101914.97;5028673;28;20214;-66
2023/04/02 03:23:58;;;;;;;5.13;1.40;;;;;;;1.57;100.00;101913.34;5024699;28;20245;-66
2023/04/02 03:26:36;;;;;;;5.07;1.13;;;;;;;1.59;100.00;101919.34;5031109;28;20280;-67
2023/04/02 03:29:15;;;;;;;5.43;1.10;;;;;;;1.58;100.00;101928.59;5029348;28;20662;-66
2023/04/02 03:31:47;;;;;;;3.53;1.20;;;;;;;1.60;100.00;101922.00;5031583;28;20220;-67
2023/04/02 03:34:22;;;;;;;3.53;1.30;;;;;;;1.58;100.00;101940.31;5025103;28;20210;-67
2023/04/02 03:37:04;;;;;;;4.60;1.23;;;;;;;1.60;100.00;101944.72;5033533;28;20189;-66
2023/04/02 03:39:37;;;;;;;4.37;1.20;;;;;;;1.63;100.00;101952.50;5030075;28;20221;-66
2023/04/02 03:42:12;;;;;;;5.63;1.57;;;;;;;1.65;100.00;101950.09;5033184;28;20189;-66
2023/04/02 03:44:47;;;;;;;4.37;1.40;;;;;;;1.68;100.00;101961.28;5047554;28;20236;-67
2023/04/02 03:47:23;;;;;;;3.80;1.13;;;;;;;1.70;100.00;101967.31;5029068;28;20545;-67
2023/04/02 03:49:56;;;;;;;2.53;0.93;;;;;;;1.66;100.00;101965.31;5023763;28;20194;-67
2023/04/02 03:52:28;;;;;;;5.73;1.50;;;;;;;1.65;100.00;101967.78;5028612;28;20601;-66
2023/04/02 03:54:59;;;;;;;4.20;1.10;;;;;;;1.64;100.00;101964.34;5028124;28;20300;-65
2023/04/02 03:57:37;;;;;;;7.00;1.30;;;;;;;1.64;100.00;101978.59;5027013;28;20350;-66
2023/04/02 04:00:15;;;;;;;6.03;1.37;;;;;;;1.66;100.00;101979.63;5023676;28;20655;-67
2023/04/02 04:02:51;;;;;;;5.37;1.23;;;;;;;1.68;100.00;101986.53;5047208;28;20208;-66
2023/04/02 04:05:30;;;;;;;3.73;1.30;;;;;;;1.72;100.00;101990.16;5030151;28;20312;-67
2023/04/02 04:08:06;;;;;;;3.07;1.17;;;;;;;1.76;100.00;101992.13;5045989;28;20224;-68
2023/04/02 04:10:33;;;;;;;8.13;1.30;;;;;;;1.76;100.00;101999.69;5023014;28;20642;-65
2023/04/02 04:13:10;;;;;;;2.70;0.87;;;;;;;1.80;100.00;101996.63;5027575;28;20186;-66
2023/04/02 04:15:41;;;;;;;3.83;1.20;;;;;;;1.76;100.00;102010.69;5023928;28;20572;-67
2023/04/02 04:18:38;;;;;;;3.53;1.20;;;;;;;1.82;100.00;102027.91;5031530;28;20186;-67
2023/04/02 04:21:28;;;;;;;4.93;1.10;;;;;;;1.82;100.00;102018.69;5024754;28;20238;-66
2023/04/02 04:24:05;;;;;;;3.10;0.90;;;;;;;1.84;100.00;102031.44;5023825;28;20213;-66
2023/04/02 04:26:43;;;;;;;6.00;1.30;;;;;;;1.82;100.00;102031.31;5026112;28;20205;-65
2023/04/02 04:29:36;;;;;;;5.40;1.27;;;;;;;1.84;100.00;102037.34;5025026;28;20198;-67
2023/04/02 04:32:30;;;;;;;4.67;1.40;;;;;;;1.88;100.00;102044.38;5026718;28;20218;-67
2023/04/02 04:35:36;;;;;;;4.90;1.10;;;;;;;1.88;100.00;102041.84;5021984;28;20209;-66
2023/04/02 04:38:08;;;;;;;1.80;1.23;;;;;;;1.90;100.00;102052.06;5015109;28;20210;-66
2023/04/02 04:40:41;;;;;;;6.33;1.37;;;;;;;1.95;100.00;102045.69;5031756;28;20659;-65
2023/04/02 04:43:14;;;;;;;5.73;1.30;;;;;;;1.93;100.00;102053.16;5047248;28;20186;-65
2023/04/02 04:45:46;;;;;;;6.27;1.03;;;;;;;1.96;100.00;102058.44;5026876;28;21356;-66
2023/04/02 04:48:56;;;;;;;5.23;1.40;;;;;;;1.98;100.00;102068.66;5028554;28;20666;-65
2023/04/02 04:51:58;;;;;;;5.80;1.50;;;;;;;1.95;100.00;102076.91;5024019;28;20619;-67
2023/04/02 04:54:26;;;;;;;5.47;1.20;;;;;;;1.99;100.00;102078.88;5028071;28;20593;-65
2023/04/02 04:57:00;;;;;;;3.40;1.10;;;;;;;1.98;100.00;102081.28;5026654;28;20186;-65
2023/04/02 04:59:34;;;;;;;4.30;1.03;;;;;;;2.02;100.00;102081.59;5025927;28;20205;-66
2023/04/02 05:02:16;;;;;;;2.17;1.13;;;;;;;2.00;100.00;102089.84;5031327;28;20185;-64
2023/04/02 05:04:47;;;;;;;3.17;1.10;;;;;;;2.05;100.00;102093.56;5014389;28;20294;-66
2023/04/02 05:07:21;;;;;;;3.93;1.07;;;;;;;2.10;100.00;102097.31;5030198;28;20193;-65
2023/04/02 05:10:18;;;;;;;3.13;1.27;;;;;;;2.14;100.00;102095.13;5029213;28;20200;-67
2023/04/02 05:12:55;;;;;;;4.37;1.30;;;;;;;2.16;100.00;102095.25;5027134;28;20243;-67
2023/04/02 05:15:32;;;;;;;5.63;1.00;;;;;;;2.19;100.00;102100.50;5023963;28;20237;-68
2023/04/02 05:18:24;;;;;;;3.10;1.20;;;;;;;2.18;100.00;102106.34;5010726;28;20243;-67
2023/04/02 05:21:00;;;;;;;2.87;1.00;;;;;;;2.26;100.00;102113.69;5027286;28;20197;-66
2023/04/02 05:23:29;;;;;;;3.73;1.07;;;;;;;2.26;100.00;102105.25;5023979;28;20236;-68
2023/04/02 05:26:02;;;;;;;3.47;1.03;;;;;;;2.30;100.00;102117.34;5031865;28;20549;-67
2023/04/02 05:28:41;;;;;;;2.63;1.50;;;;;;;2.31;100.00;102108.97;5028625;28;20190;-67
2023/04/02 05:31:18;;;;;;;4.03;1.47;;;;;;;2.36;100.00;102089.97;5030455;28;20209;-68
2023/04/02 05:33:46;;;;;;;5.33;1.30;;;;;;;2.38;100.00;102093.47;5028087;28;20298;-68
2023/04/02 05:36:20;;;;;;;5.80;1.10;;;;;;;2.39;100.00;102111.28;5047014;28;20182;-67
2023/04/02 05:38:50;;;;;;;3.73;1.00;;;;;;;2.46;100.00;102113.50;5024742;28;20192;-67
2023/04/02 05:41:26;;;;;;;5.27;1.27;;;;;;;2.49;100.00;102101.06;5026034;28;20272;-68
2023/04/02 05:44:10;;;;;;;3.23;0.80;;;;;;;2.56;100.00;102110.84;5026580;28;20275;-67
2023/04/02 05:46:53;;;;;;;4.40;1.00;;;;;;;2.64;100.00;102104.69;5027916;28;20197;-66
2023/04/02 05:49:30;;;;;;;6.03;1.37;;;;;;;2.66;100.00;102099.75;5029784;28;20196;-66
2023/04/02 05:52:00;;;;;;;6.93;1.40;;;;;;;2.74;100.00;102091.91;5045668;28;20220;-67
2023/04/02 05:54:38;;;;;;;4.60;1.33;;;;;;;2.89;100.00;102092.97;5028740;28;20742;-67
2023/04/02 05:57:12;;;;;;;3.37;1.10;;;;;;;2.99;100.00;102089.47;5027491;28;20213;-67
2023/04/02 05:59:52;;;;;;;3.33;1.10;;;;;;;3.02;100.00;102079.53;5047119;28;20332;-67
2023/04/02 06:02:31;;;;;;;3.43;1.00;;;;;;;3.10;100.00;102091.06;5024916;28;20190;-67
2023/04/02 06:05:03;;;;;;;2.10;1.00;;;;;;;3.34;100.00;102075.00;5023335;28;20304;-66
2023/04/02 06:07:43;;;;;;;3.10;1.23;;;;;;;3.54;100.00;102060.38;5026650;28;20201;-66
2023/04/02 06:10:16;;;;;;;2.47;1.10;;;;;;;3.80;100.00;102051.97;5025728;28;20287;-67
2023/04/02 06:13:03;;;;;;;6.17;1.13;;;;;;;3.97;100.00;102029.50;5020500;28;20276;-66
2023/04/02 06:15:34;;;;;;;4.00;1.00;;;;;;;4.11;100.00;102053.19;5028193;28;20210;-67
2023/04/02 06:18:13;;;;;;;5.30;1.50;;;;;;;4.01;100.00;102011.16;5027383;28;20928;-67
2023/04/02 06:20:40;;;;;;;4.27;1.23;;;;;;;4.03;100.00;102008.72;5025970;28;20196;-67
2023/04/02 06:23:18;;;;;;;3.57;0.97;;;;;;;4.19;100.00;101973.47;5027043;28;20220;-67
2023/04/02 06:25:50;;;;;;;4.43;1.10;;;;;;;4.33;100.00;102003.09;5025567;28;20312;-68
2023/04/02 06:28:21;;;;;;;4.43;1.30;;;;;;;4.31;100.00;101991.94;5026858;28;20197;-67
2023/04/02 06:30:55;;;;;;;4.00;1.23;;;;;;;4.41;100.00;102000.22;5029740;28;20244;-67
2023/04/02 06:33:20;;;;;;;4.60;1.40;;;;;;;4.52;100.00;101996.69;5026639;28;20571;-66
2023/04/02 06:35:50;;;;;;;2.93;1.10;;;;;;;4.67;100.00;101979.00;5025747;28;20643;-68
2023/04/02 06:38:28;;;;;;;3.73;1.50;;;;;;;4.69;100.00;101939.41;5027041;28;20193;-68
2023/04/02 06:41:07;;;;;;;3.30;0.90;;;;;;;4.78;100.00;101905.31;5026685;28;20222;-68
2023/04/02 06:43:45;;;;;;;6.30;1.20;;;;;;;4.99;100.00;101951.38;5046413;28;20209;-68
2023/04/02 06:46:44;;;;;;;1.90;0.90;;;;;;;5.14;100.00;101927.78;5041779;28;20205;-66
2023/04/02 06:49:37;;;;;;;4.37;1.17;;;;;;;5.30;100.00;101938.00;5029760;28;20573;-67
2023/04/02 06:52:15;;;;;;;2.43;0.83;;;;;;;5.44;100.00;101908.34;5010632;28;20209;-69
2023/04/02 06:54:41;;;;;;;2.90;1.00;;;;;;;5.42;100.00;101879.44;5027899;28;20217;-68
2023/04/02 06:57:10;;;;;;;3.23;0.90;;;;;;;5.55;100.00;101857.34;5028232;28;20324;-66
2023/04/02 06:59:39;;;;;;;3.67;1.10;;;;;;;5.69;100.00;101865.72;5025906;28;20194;-68
2023/04/02 07:02:30;;;;;;;4.20;1.70;;;;;;;5.76;100.00;101845.81;5027447;28;20174;-67
2023/04/02 07:05:02;;;;;;;3.30;1.00;;;;;;;5.90;100.00;101827.13;5039265;28;20581;-66
2023/04/02 07:07:28;;;;;;;6.30;1.27;;;;;;;6.11;100.00;101848.63;5025256;28;20199;-64
2023/04/02 07:09:55;;;;;;;2.47;0.93;;;;;;;6.37;100.00;101868.69;5028167;28;20280;-69
2023/04/02 07:12:23;;;;;;;5.67;1.03;;;;;;;6.03;100.00;101854.97;5027605;28;20658;-67
2023/04/02 07:14:49;;;;;;;2.80;1.00;;;;;;;6.14;100.00;101804.69;5024452;28;20236;-66
2023/04/02 07:17:17;;;;;;;3.33;1.37;;;;;;;6.14;100.00;101781.81;5026253;28;20190;-67
2023/04/02 07:19:44;;;;;;;3.83;1.00;;;;;;;6.43;100.00;101796.88;5029737;28;20192;-67
2023/04/02 07:22:10;;;;;;;4.57;1.10;;;;;;;6.39;100.00;101793.31;5026179;28;20267;-69
2023/04/02 07:24:39;;;;;;;3.40;0.83;;;;;;;6.59;100.00;101758.72;5028238;28;20214;-67
2023/04/02 07:27:04;;;;;;;2.07;0.93;;;;;;;6.67;100.00;101773.56;5045521;28;20255;-68
2023/04/02 07:29:30;;;;;;;2.20;0.87;;;;;;;6.76;100.00;101755.31;5046340;28;20189;-67
2023/04/02 07:31:55;;;;;;;4.00;1.00;;;;;;;6.84;100.00;101710.75;5044856;28;20686;-67
2023/04/02 07:34:20;;;;;;;2.77;0.83;;;;;;;6.99;100.00;101709.81;5049670;28;20220;-69
2023/04/02 07:36:48;;;;;;;2.20;1.00;;;;;;;7.14;100.00;101695.25;5049527;28;20217;-67
2023/04/02 07:39:13;;;;;;;2.33;0.90;;;;;;;7.16;100.00;101703.84;5051472;28;20193;-68
2023/04/02 07:41:53;;;;;;;3.27;1.00;;;;;;;7.57;100.00;101683.69;5013075;28;20693;-67
2023/04/02 07:44:19;;;;;;;3.70;0.97;;;;;;;7.74;100.00;101684.44;5050163;28;20300;-68
2023/04/02 07:46:45;;;;;;;2.70;0.90;;;;;;;7.97;100.00;101661.66;5050567;28;20620;-67
2023/04/02 07:49:10;;;;;;;3.73;0.90;;;;;;;7.95;100.00;101693.00;5051124;28;20204;-68
2023/04/02 07:51:36;;;;;;;3.30;0.90;;;;;;;8.51;100.00;101777.94;5044667;28;20229;-67
2023/04/02 07:54:02;;;;;;;3.70;1.00;;;;;;;8.42;100.00;101673.81;5050758;28;20255;-67
2023/04/02 07:56:27;;;;;;;2.47;0.80;;;;;;;8.44;100.00;101620.28;5051368;28;20194;-68
2023/04/02 07:58:53;;;;;;;4.13;0.67;;;;;;;8.73;100.00;101632.53;5033020;28;20666;-68
2023/04/02 08:01:24;;;;;;;2.93;0.70;;;;;;;8.97;100.00;101596.03;5050928;28;20545;-68
2023/04/02 08:03:51;;;;;;;2.67;0.97;;;;;;;9.12;100.00;101649.41;5046764;28;20205;-68
2023/04/02 08:06:17;;;;;;;3.00;0.90;;;;;;;9.18;100.00;101632.63;5046295;28;20185;-65
2023/04/02 08:08:43;;;;;;;2.67;0.90;;;;;;;9.07;99.28;101602.38;5046988;28;20203;-68
2023/04/02 08:11:09;;;;;;;3.50;0.93;;;;;;;9.25;100.00;101595.34;5049483;28;20213;-69
2023/04/02 08:13:36;;;;;;;4.50;0.90;;;;;;;9.38;100.00;101620.56;5048175;28;20205;-68
2023/04/02 08:16:02;;;;;;;3.30;1.00;;;;;;;9.34;98.83;101578.69;5049709;28;20205;-69
2023/04/02 08:18:29;;;;;;;4.53;0.90;;;;;;;9.56;93.52;101554.75;5049298;28;20198;-68
2023/04/02 08:20:56;;;;;;;5.67;1.10;;;;;;;9.83;92.99;101542.91;5049730;28;20190;-68
2023/04/02 08:23:22;;;;;;;2.17;0.90;;;;;;;9.83;86.62;101477.28;5046785;28;20292;-69
2023/04/02 08:25:48;;;;;;;3.67;1.03;;;;;;;9.56;91.96;101541.97;5048920;28;20330;-68
2023/04/02 08:28:14;;;;;;;3.67;0.90;;;;;;;9.52;91.51;101532.44;5047102;28;20285;-68
2023/04/02 08:30:39;;;;;;;2.43;0.83;;;;;;;8.94;93.31;101570.38;5049263;28;20213;-68
2023/04/02 08:33:05;;;;;;;2.30;0.80;;;;;;;8.86;95.36;101606.66;5044343;28;20193;-69
2023/04/02 08:35:31;;;;;;;3.20;1.27;;;;;;;8.62;97.93;101628.69;5049415;28;20698;-67
2023/04/02 08:37:57;;;;;;;2.90;1.13;;;;;;;8.30;98.03;101637.59;5046787;28;20187;-67
2023/04/02 08:40:34;;;;;;;1.77;1.00;;;;;;;8.43;94.59;101613.47;5046679;28;20618;-67
2023/04/02 08:43:22;;;;;;;3.13;1.10;;;;;;;8.92;98.90;101628.19;5045236;28;20554;-68
2023/04/02 08:45:55;;;;;;;1.97;0.83;;;;;;;8.29;95.84;101630.75;5047673;28;20702;-68
2023/04/02 08:48:22;;;;;;;1.87;0.80;;;;;;;8.44;98.11;101658.56;5048135;28;20679;-67
2023/04/02 08:50:49;;;;;;;4.40;1.13;;;;;;;8.40;95.36;101636.28;5049294;28;20216;-68
2023/04/02 08:53:20;;;;;;;3.57;0.93;;;;;;;9.02;94.16;101624.28;5046665;28;20601;-67
2023/04/02 08:56:04;;;;;;;4.27;1.00;;;;;;;9.93;88.92;101583.31;5047203;28;20280;-67
2023/04/02 08:58:42;;;;;;;3.17;1.00;;;;;;;10.00;84.73;101517.03;5048547;28;20194;-67
2023/04/02 09:01:41;;;;;;;2.00;1.10;;;;;;;10.28;80.60;101486.41;5043260;28;20208;-68
2023/04/02 09:04:14;;;;;;;3.40;1.00;;;;;;;10.62;76.65;101457.56;5046291;28;20264;-68
2023/04/02 09:06:42;;;;;;;2.17;1.17;;;;;;;10.74;86.99;101521.97;5046537;28;20186;-68
2023/04/02 09:09:11;;;;;;;3.20;1.30;;;;;;;10.81;81.23;101490.56;5048140;28;20228;-66
2023/04/02 09:11:53;;;;;;;2.53;0.90;;;;;;;10.71;83.08;101507.38;5048136;28;20226;-68
2023/04/02 09:14:38;;;;;;;2.50;1.03;;;;;;;10.08;84.53;101532.69;5044777;28;20224;-68
2023/04/02 09:17:15;;;;;;;3.83;1.20;;;;;;;10.00;90.47;101592.94;5026727;28;20253;-67
2023/04/02 09:19:44;;;;;;;5.10;1.40;;;;;;;9.53;86.44;101585.31;5048895;28;20205;-67
2023/04/02 09:22:20;;;;;;;4.13;1.37;;;;;;;10.17;93.15;101631.09;5048754;28;20194;-67
2023/04/02 09:24:54;;;;;;;4.27;0.97;;;;;;;11.25;87.37;101557.63;5029067;28;20240;-67
2023/04/02 09:27:23;;;;;;;2.30;0.90;;;;;;;11.60;76.56;101489.38;5044085;28;20190;-68
2023/04/02 09:29:53;;;;;;;1.90;0.73;;;;;;;11.77;63.55;101385.47;5049286;28;20669;-67
2023/04/02 09:32:48;;;;;;;3.20;1.10;;;;;;;11.87;61.21;101319.00;5040855;28;20228;-68
2023/04/02 09:35:52;;;;;;;3.63;1.00;;;;;;;11.51;55.97;101259.16;5047096;28;20324;-67
2023/04/02 09:38:34;;;;;;;3.70;0.83;;;;;;;11.59;54.62;101201.25;5047655;28;20189;-66
2023/04/02 09:41:17;;;;;;;1.13;0.73;;;;;;;12.11;64.29;101313.50;5048945;28;20198;-69
2023/04/02 09:43:43;;;;;;;1.83;0.83;;;;;;;12.52;61.75;101333.16;5046645;28;20214;-69
2023/04/02 09:46:11;;;;;;;4.23;1.10;;;;;;;12.65;59.96;101324.88;5048794;28;20613;-67
2023/04/02 09:48:42;;;;;;;1.80;0.73;;;;;;;12.47;54.71;101234.63;5028784;28;20247;-68
2023/04/02 09:51:21;;;;;;;3.73;0.90;;;;;;;11.86;50.94;101134.22;5044749;28;20764;-67
2023/04/02 09:54:06;;;;;;;1.60;0.83;;;;;;;12.44;56.43;101237.16;5046576;28;20210;-68
2023/04/02 09:56:37;;;;;;;3.60;1.00;;;;;;;12.32;50.02;101152.16;5046875;28;20200;-68
2023/04/02 09:59:05;;;;;;;2.80;1.00;;;;;;;11.88;49.68;101161.63;5047138;28;20186;-68
2023/04/02 10:01:34;;;;;;;3.03;1.20;;;;;;;12.36;49.90;101203.59;5030234;28;20194;-68
2023/04/02 10:04:02;;;;;;;3.95;1.42;;;;;;;12.47;48.79;101266.31;5047021;28;20764;-68
2023/04/02 10:06:29;;;;;;;2.92;0.98;;;;;;;13.15;50.31;101313.81;5046372;28;20235;-69
2023/04/02 10:08:55;;;;;;;2.03;0.98;;;;;;;13.81;50.43;101324.25;5048379;28;20209;-68
2023/04/02 10:11:32;;;;;;;3.03;1.10;;;;;;;14.42;47.22;101350.88;5047724;28;20247;-68
2023/04/02 10:14:08;;;;;;;3.35;1.17;;;;;;;17.99;38.73;102034.41;5046927;28;20256;-68
2023/04/02 10:16:37;;;;;;;2.05;0.93;;;;;;;19.58;34.09;102240.59;5046866;28;20189;-68
2023/04/02 10:19:36;;;;;;;1.85;1.00;;;;;;;21.86;32.49;102263.41;5048431;28;20189;-68
2023/04/02 10:22:12;;;;;;;3.63;1.20;;;;;;;22.52;29.69;102289.22;5022279;28;20210;-68
2023/04/02 10:24:38;;;;;;;2.67;1.40;;;;;;;22.38;30.88;102301.41;5045710;28;20225;-68
2023/04/02 10:27:08;;;;;;;1.35;0.95;;;;;;;22.12;31.07;102306.78;5028361;28;20689;-67
2023/04/02 10:30:02;;;;;;;3.50;1.23;;;;;;;21.74;32.52;102336.50;5044263;28;20205;-68
2023/04/02 10:32:35;;;;;;;2.33;1.20;;;;;;;19.10;35.44;102382.25;5046038;28;20685;-70
2023/04/02 10:35:20;;;;;;;1.35;1.00;;;;;;;18.23;37.10;102402.84;5047135;28;20223;-70
2023/04/02 10:37:46;;;;;;;1.42;0.93;;;;;;;18.59;40.71;102431.00;5043603;28;20202;-68
2023/04/02 10:40:28;;;;;;;1.90;0.82;;;;;;;18.20;40.67;102446.03;5047038;28;20198;-72
2023/04/02 10:43:16;;;;;;;2.20;1.13;;;;;;;16.74;40.13;102438.31;5046120;28;20296;-70
2023/04/02 10:46:05;;;;;;;1.80;1.00;;;;;;;16.36;40.29;102449.53;5044684;28;20217;-72
2023/04/02 10:48:45;;;;;;;2.77;1.00;;;;;;;16.31;41.90;102456.31;5026655;28;20214;-69
2023/04/02 10:51:27;;;;;;;2.70;1.20;;;;;;;15.44;41.99;102469.72;5048106;28;20300;-70
2023/04/02 10:54:16;;;;;;;2.67;1.00;;;;;;;15.93;42.05;102484.72;5043682;28;20213;-71
2023/04/02 10:56:43;;;;;;;2.63;1.40;;;;;;;15.34;42.13;102472.00;5048017;28;20232;-71
2023/04/02 10:59:17;;;;;;;1.33;0.97;;;;;;;15.28;40.95;102474.41;5043476;28;20705;-70
2023/04/02 11:01:45;;;;;;;3.90;1.17;;;;;;;15.02;42.35;102483.13;5044598;28;20197;-70
2023/04/02 11:04:18;;;;;;;2.00;0.93;;;;;;;15.44;42.48;102474.00;5045839;28;20294;-71
2023/04/02 11:06:51;;;;;;;2.43;0.93;;;;;;;16.10;41.83;102491.13;5045791;28;20678;-69
2023/04/02 11:09:25;;;;;;;1.63;0.90;;;;;;;15.81;40.30;102467.22;5051101;28;20185;-70
2023/04/02 11:11:55;;;;;;;3.03;1.00;;;;;;;15.71;39.46;102448.88;5048080;28;20213;-70
2023/04/02 11:14:26;;;;;;;2.37;0.80;;;;;;;16.05;39.63;102459.16;5049553;28;20213;-70
2023/04/02 11:16:53;;;;;;;1.43;0.90;;;;;;;16.07;40.01;102463.50;5049538;28;20206;-70
2023/04/02 11:19:25;;;;;;;2.13;0.90;;;;;;;16.29;40.06;102463.16;5031396;28;20213;-71
2023/04/02 11:21:58;;;;;;;2.87;0.90;;;;;;;16.45;40.55;102473.06;5047492;28;20182;-70
2023/04/02 11:24:32;;;;;;;2.10;1.00;;;;;;;16.18;39.54;102448.25;5020463;28;20667;-71
2023/04/02 11:27:10;;;;;;;2.03;1.00;;;;;;;16.55;41.24;102458.59;5044698;28;20251;-70
2023/04/02 11:29:46;;;;;;;2.67;0.90;;;;;;;16.79;40.21;102461.66;5050263;28;20205;-71
2023/04/02 11:32:22;;;;;;;1.90;0.90;;;;;;;16.52;41.19;102474.03;5042223;28;20619;-70
2023/04/02 11:34:48;;;;;;;2.37;0.90;;;;;;;15.57;43.76;102507.91;5050118;28;20262;-70
2023/04/02 11:37:43;;;;;;;3.17;1.10;;;;;;;15.76;43.58;102514.44;5033480;28;20194;-70
2023/04/02 11:40:15;;;;;;;2.50;1.10;;;;;;;15.34;45.55;102528.81;5031025;28;20729;-70
2023/04/02 11:42:44;;;;;;;2.97;1.00;;;;;;;14.46;46.43;102557.97;5048532;28;20292;-70
2023/04/02 11:45:19;;;;;;;1.90;1.10;;;;;;;15.05;45.34;102540.84;5031511;28;20236;-69
2023/04/02 11:48:00;;;;;;;1.63;0.90;;;;;;;15.60;46.57;102554.47;5047957;28;20200;-66
2023/04/02 11:50:40;;;;;;;2.67;1.20;;;;;;;15.50;45.75;102534.41;5046864;28;20236;-66
2023/04/02 11:53:09;;;;;;;2.90;1.27;;;;;;;15.76;44.67;102522.19;5048919;28;20216;-69
2023/04/02 11:55:36;;;;;;;2.33;1.20;;;;;;;16.13;47.01;102540.34;5050596;28;20262;-69
2023/04/02 11:58:24;;;;;;;2.27;1.13;;;;;;;16.32;46.56;102547.69;5048847;28;20221;-68
2023/04/02 12:01:07;;;;;;;2.87;1.07;;;;;;;15.83;45.84;102543.03;5047882;28;20192;-68